Timeline UpdatesTrip UpdatesNews PostsPvt PostsTravel TipsAdmin PostsConv PostsFollowed PostsChat RequestsBlog PostsPNR Posts

Disclaimer
Search
 
 
Sun Aug 31, 2014 11:47:29 ISTHomeTrainsΣChainsAtlasPNRForumGalleryNewsFAQTripsMembersLoginFeedback
No Recent News for this Train
Other Trains in the News **new
Latest...
.
Wed Feb 26, 2014 (06:54PM)
⇐ Return Journey: Train# 15018

15017/Kashi Express

Jul 24 2014 (8:42PM)
Change Departure Station:
Change Arrival Station:
Post a Train Travel TipPost a Train Travel Tip **new
Post a Comment/Question/Picture/VideoPost a Comment/Question/Picture/Video
Pantry/Catering
✕ NO Pantry Car
✓ Catering Avbl
Loco/Rake Reversals
ALD/Allahabad Junction (10);
RSA - Rake Sharing
No RSA.
Rake/Coach Composition
Loco-GEN-GEN-GEN-S1-S2-S3-S4-S5-S6-S7-S8-S9-S10-S11-S12-A1-B1-GEN-GEN-SLR; As per Shubham in # 127749.
Loco
LTT-ET :-BSL/ET WAP-4 / WAM-4 ET-GKP :-ET WDM-3A/3D.
News    PNR    Forum    Time-Table    Availability    Fare Chart    Map    Arr/Dep History    Trips    Gallery    ΣChains    X/O    Timeline    
Travel Time: 10h 35m    18 halts    Distance: 577 km    Avg Speed: 54 km/hr
Type: Mail/Express
Zone: NER/North Eastern
Departs @ 06:35 (Avg 8m late)
Platform# 3
SMTWTFS
Mumbai Lokmanya Tilak Terminus/LTT 
Arrives @ 17:10 (Avg 23m late)
Platform# ???
SMTWTFS
Surgaon Banjari/SGBJ 

18 halts. 84 intermediate Stations between Mumbai Lokmanya Tilak Terminus and Surgaon Banjari

Show ALL intermediate Stations  Show Old Time-Table

#CodeStation NameX/OArrivesAvgDepartsAvgHaltPFDay#KmSpeedElevZoneAddress
1LTT»Mumbai Lokmanya Tilak Terminus (5)»  -06:35+8310.0417mCRMumbai - 400089, Maharashtra
2TNAThane (10)X  06:59+1007:00+111m7116.56710mCRThane (West) 400602, Maharashtra
3KYNKalyan Junction (8)  07:18+2007:22+214m4136.76110mCRKalyan 421301, Maharashtra
4KSRAKasara (4)X  08:28+2508:30+302m11104.125290mCRDist. Thane 421602, Maharashtra
5IGPIgatpuri (4)X09:05+2409:10+305m21118.571589mCRIgatpuri 422403, Maharashtra
6DVLDevlali (3)X  09:48+3309:50+342m11163.434561mCRDist. Nashik 422401, Maharashtra
7NKNasik Road (3)  10:00+3210:05+315m21169.176563mCRNashik 422101, Maharashtra
8LSLasalgaon (3)  10:43+3010:45+302m--1217.474592mCRLasalgaon, Maharashtra
9MMRManmad Junction (6)X  11:05+3511:10+355m21241.985580mCRManmad 423104, Maharashtra
10NGNNandgaon (3)  11:28+4011:30+412m--1267.390476mCRNandgaon, Maharashtra
11CSNChalisgaon Junction (3)  11:58+4412:00+442m--1309.596352mCRChalisgaon 424101, Maharashtra
12PCPachora Junction (4)  12:28+5112:30+522m--1354.389264mCRPachora 424201, Maharashtra
13JLJalgaon Junction (4)  13:02+5913:05+583m31402.041213mCRJalgaon 425001, Maharashtra
14BSLBhusaval Junction (8)X  13:40+4813:50+5010m--1426.169208mCRBhusaval 425201, Maharashtra
15RVRaver (2)  14:20+5714:22+592m--1460.476242mCRJalgaon, Maharashtra
16BAUBurhanpur (2)X  14:38+5914:40+592m21480.687269mCRBurhanpur, Madhya Pradesh
17NPNRNepanagar (2)  14:58+1:0815:00+1:082m--1506.826289mCRState Highway 27, Madhya Pradesh
18KNWKhandwa Junction (5)XO  16:40+1316:45+145m11549.573310mCRKhandwa, Madhya Pradesh
19TLVTalvadiya (2)XO  16:58+2317:00+242m--1565.271308mWCRKhandwa, Madhya Pradesh
20SGBJ•Surgaon Banjari (2)•XO  17:10+2317:12+252m--1577.077298mWCRKhandwa, Madhya Pradesh
21CAERChhanera (2)O  17:26+2717:28+302m--1594.961283mWCRChhanera, Madhya Pradesh
22BRUDBarud (2)  17:38+3017:40+352m--1605.095273mWCRKhandwa, Madhya Pradesh
23KKNKhirkiya (2)  17:53+4117:55+1:082m21625.6105281mWCRSH 15, Madhya Pradesh
24HDHarda (3)XO  18:13+1:1318:15+1:132m--1657.156289mWCRHarda, Madhya Pradesh
25TBNTimarni (2)X  18:30+1:1518:32+1:212m--1671.250308mWCRTimarni, Madhya Pradesh
26BPFBanapura (2)XO  19:06+1:1119:08+1:182m--1699.416314mWCRBanapura, Madhya Pradesh
27ETItarsi Junction (7)X21:10+821:20+1910m11732.974329mWCRItarsi 461111, Madhya Pradesh
28SGPSohagpur (2)X  22:00+3822:02+392m--1782.476340mWCRSohagpur, Madhya Pradesh
29PPIPipariya (3)  22:16+4222:18+422m11800.199338mWCRPiparia, Madhya Pradesh
30GARGadarwara (2)X  22:48+5222:50+522m11849.568352mWCRNarsinghpur, Madhya Pradesh
31KYKareli (2)  23:15+4923:17+492m11878.086361mWCRKareli, Madhya Pradesh
32NUNarsinghpur (2)  23:28+5323:30+532m11893.860365mWCRNarsimhapur, Madhya Pradesh
33SRIDShridham (3)X  00:01+4800:03+482m22925.076373mWCRShridham, Madhya Pradesh
34MMLMadan Mahal (3)  00:42+4700:44+462m22974.618428mWCRJabalpur, Madhya Pradesh
35JBPJabalpur Junction (4)X  00:55+3701:05+4210m32977.975416mWCRJabalpur, Madhya Pradesh
36SHRSihora Road (2)X  01:36+4501:38+452m--21016.575388mWCRJabalpur, Madhya Pradesh
37KTEKatni Junction (6)X  02:20+4602:25+475m--21068.767387mWCRKatni, Madhya Pradesh
38MYRMaihar (3)X  03:21+4103:23+412m121131.766353mWCRMaihar Railway Station, Madhya Pradesh
39STASatna Junction (3)X  03:55+3704:05+3710m--21167.171322mWCRSatna, Madhya Pradesh
40JTWJaitwar (2)X  04:22+4204:24+432m--21187.240321mWCRJaitwar, Madhya Pradesh
41MKPManikpur Junction (4)X  05:50+1605:55+185m221244.875250mNCRManikpur, Uttar Pradesh
42DBRDabhaura (2)X  06:13+2006:15+212m--21267.372201mNCRDabhaura, Uttar Pradesh
43SRJShankargarh (3)  06:42+2106:44+232m221299.866132mNCRShankargarh, Uttar Pradesh
44JSRJasra (2)X  07:04+2207:06+232m--21321.62497mNCRJasra, Uttar Pradesh
45NYNNaini Junction (4)X  07:45+1507:47+202m421337.21998mNCRAllahabad, Uttar Pradesh
46ALDAllahabad Junction (10)O08:10+2008:30+2220m921344.322100mNCRAllahabad 211003, Uttar Pradesh
47PRGPrayag Junction (3)XO  08:47+3408:49+382m--21350.61596mNRAllahabad, Uttar Pradesh
48PFMPhaphamau Junction (3)XO  09:14+2609:15+271m--21357.05699mNRAllahabad, Uttar Pradesh
49SYCSarai ChandiO  09:29+3109:30+311m--21370.15395mNR221507, Uttar Pradesh
50PLPPhulpur (3)O  09:42+3209:43+321m121380.66993mNRDistrict - Allahabad 212402, Uttar Pradesh
51URPRUgrasenpur (2)  09:52+3609:53+371m121391.05096mNRJanghai, Uttar Pradesh
52JNHJanghai Junction (3)O  10:08+4010:10+452m121403.63092mNRUttar Pradesh 212401, Uttar Pradesh
53SQNSarai Kansrai (2)XO  10:20+4510:21+481m--21408.63892mNRGopalaha Marg, Uttar Pradesh
54SAWSuriawan (2)O  10:37+4710:38+481m--21418.74890mNR221404, Uttar Pradesh
55MOFMondh (2)  10:47+5010:48+511m121425.94491mNRUttar Pradesh 221406, Uttar Pradesh
56BOYBhadohi (2)O  10:59+5411:01+562m--21434.03890mNRUttar Pradesh 221401, Uttar Pradesh
57PRFParsipur (2)O  11:14+5511:15+551m--21442.35687mNRSant Ravidas Nagar, Uttar Pradesh
58KEHKapseti (2)O  11:24+5711:25+581m--21450.73585mNRState Highway 87, Uttar Pradesh
59SWPRSewapuri (2)X  11:34+1:0011:35+1:001m121456.02187mNRState Highway 87, Uttar Pradesh
60BSBVaranasi Junction (9)X  12:40+2113:00+1820m521478.52482mNRVaranasi 221002, Uttar Pradesh
61BCYVaranasi City (3)  13:08+2413:10+282m--21481.85877mNERVaranasi, Uttar Pradesh
62ARJAunrihar Junction (4)  13:43+5913:45+592m--21513.67180mNERGhazipur, Uttar Pradesh
63JKNJakhanianX  14:09+1:1014:11+1:102m--21542.13082mNERState Highway 67, Uttar Pradesh
64DLRDullahapur  14:28+1:0314:30+1:042m--21550.63679mNERDullahapur, Uttar Pradesh
65MAUMau Junction (4)  15:05+4015:10+405m221571.63175mNERMau., Uttar Pradesh
66IAAIndara Junction (3)X  15:25+5215:27+532m--21579.44574mNERMau, Uttar Pradesh
67BLTRBelthara Road (2)  16:03+4616:05+472m--21606.59870mNERBelthara, Uttar Pradesh
68LRDLar Road (2)  16:13+3916:15+392m--21619.61874mNERDeoria, Uttar Pradesh
69SRUSalempur Junction (2)X  16:46+2316:48+242m--21629.12871mNERSalempur, Uttar Pradesh
70BTTBhatni Junction (5)X  17:10+1817:15+235m--21639.36973mNERDeoria, Uttar Pradesh
71DEOSDeoria Sadar (3)  17:33+2917:35+312m--21660.13179mNERDeoria- 274001, Uttar Pradesh
72GKPGorakhpur Junction (10)  19:10+9-621709.2-84mNERGorakhpur 273001, Uttar Pradesh
Scroll to Top
Scroll to Bottom